Time;durP1;ratioP1;P1;durP2;ratioP2;P2;SDS_P1;SDS_P2;PMS_P1;PMS_P2;Temp;Humidity;BMP_temperature;BMP_pressure;BME280_temperature;BME280_humidity;BME280_pressure;Samples;Min_cycle;Max_cycle;Signal;HPM_P1;HPM_P2
2022/12/30 00:01:43;;;;;;;13.43;2.15;;;6.60;99.90;;;;;;7294127;32;20124;-62
2022/12/30 00:05:45;;;;;;;8.82;2.42;;;6.70;99.90;;;;;;7289292;32;20215;-59
2022/12/30 00:09:47;;;;;;;10.48;1.60;;;6.60;99.90;;;;;;7292545;32;20210;-59
2022/12/30 00:35:57;;;;;;;10.52;1.70;;;6.60;99.90;;;;;;7294813;32;20369;-60
2022/12/30 00:39:59;;;;;;;11.00;2.00;;;6.60;99.90;;;;;;7278493;32;20199;-60
2022/12/30 00:44:01;;;;;;;13.62;2.30;;;6.60;99.90;;;;;;7292559;32;20551;-60
2022/12/30 00:56:44;;;;;;;12.75;2.55;;;6.60;99.90;;;;;;7296117;32;20124;-60
2022/12/30 01:00:46;;;;;;;16.25;1.65;;;6.60;99.90;;;;;;7272819;32;20127;-60
2022/12/30 01:04:48;;;;;;;12.23;2.08;;;6.50;99.90;;;;;;7279115;32;20500;-60
2022/12/30 01:08:50;;;;;;;21.52;2.17;;;6.40;99.90;;;;;;7296260;32;20103;-60
2022/12/30 01:12:52;;;;;;;13.38;1.92;;;6.40;99.90;;;;;;7279856;32;20168;-60
2022/12/30 01:16:53;;;;;;;14.07;2.45;;;6.40;99.90;;;;;;7282259;32;20257;-62
2022/12/30 01:20:59;;;;;;;15.27;2.60;;;6.30;99.90;;;;;;7294641;32;20174;-60
2022/12/30 01:25:00;;;;;;;14.20;2.33;;;6.20;99.90;;;;;;7297750;32;20112;-60
2022/12/30 01:29:02;;;;;;;12.40;2.25;;;6.20;99.90;;;;;;7281192;32;20609;-60
2022/12/30 01:33:04;;;;;;;14.77;2.45;;;6.30;99.90;;;;;;7286182;32;20801;-60
2022/12/30 01:37:06;;;;;;;14.15;2.08;;;6.30;99.90;;;;;;7282411;32;20504;-62
2022/12/30 01:41:08;;;;;;;10.88;1.80;;;6.20;99.90;;;;;;7284663;32;20219;-60
2022/12/30 01:45:18;;;;;;;15.98;2.05;;;6.20;99.90;;;;;;7294125;32;20116;-61
2022/12/30 01:49:20;;;;;;;11.93;1.65;;;6.30;99.90;;;;;;7290202;32;20120;-60
2022/12/30 01:53:28;;;;;;;11.50;1.80;;;6.20;99.90;;;;;;7271485;32;20270;-60
2022/12/30 01:57:31;;;;;;;12.68;1.55;;;6.20;99.90;;;;;;7285296;32;20210;-60
2022/12/30 02:01:34;;;;;;;11.35;2.00;;;6.10;99.90;;;;;;7268860;32;20307;-60
2022/12/30 02:05:39;;;;;;;14.27;2.22;;;6.10;99.90;;;;;;7296841;32;20095;-60
2022/12/30 02:09:42;;;;;;;15.23;2.25;;;6.10;99.90;;;;;;7298022;32;20213;-60
2022/12/30 02:13:44;;;;;;;8.68;1.45;;;6.00;99.90;;;;;;7296100;32;20149;-62
2022/12/30 02:17:58;;;;;;;12.18;1.90;;;6.00;99.90;;;;;;7271878;32;20538;-60
2022/12/30 02:22:06;;;;;;;11.38;1.75;;;5.80;99.90;;;;;;7294696;32;20199;-60
2022/12/30 02:26:10;;;;;;;10.30;1.50;;;5.70;99.90;;;;;;7294707;32;20176;-60
2022/12/30 02:30:12;;;;;;;13.60;1.95;;;5.70;99.90;;;;;;7293507;32;20831;-60
2022/12/30 02:34:38;;;;;;;18.45;2.55;;;5.80;99.90;;;;;;7287411;32;20561;-61
2022/12/30 02:39:02;;;;;;;16.58;2.08;;;5.80;99.90;;;;;;7293639;32;20211;-60
2022/12/30 02:47:43;;;;;;;11.90;1.45;;;5.80;99.90;;;;;;7283493;32;20214;-60
2022/12/30 02:56:06;;;;;;;15.82;1.60;;;5.70;99.90;;;;;;7279364;32;20160;-59
2022/12/30 03:05:05;;;;;;;10.95;1.95;;;5.90;99.90;;;;;;7292120;32;20119;-59
2022/12/30 03:09:16;;;;;;;20.08;2.55;;;5.80;99.90;;;;;;7280221;32;20136;-60
2022/12/30 03:13:23;;;;;;;12.55;1.62;;;5.70;99.90;;;;;;7293709;32;20104;-60
2022/12/30 03:17:35;;;;;;;12.13;1.75;;;5.60;99.90;;;;;;7290282;32;20218;-60
2022/12/30 03:21:40;;;;;;;17.50;2.05;;;5.60;99.90;;;;;;7279721;32;20465;-60
2022/12/30 03:30:05;;;;;;;13.35;1.90;;;5.60;99.90;;;;;;7270043;32;20559;-61
2022/12/30 03:34:07;;;;;;;11.85;1.90;;;5.60;99.90;;;;;;7282799;32;20173;-61
2022/12/30 03:38:10;;;;;;;15.50;2.30;;;5.40;99.90;;;;;;7267534;32;20443;-60
2022/12/30 03:42:14;;;;;;;10.77;2.03;;;5.30;99.90;;;;;;7280500;32;20189;-59
2022/12/30 03:46:19;;;;;;;11.20;1.90;;;5.30;99.90;;;;;;7291558;32;20155;-60
2022/12/30 03:50:21;;;;;;;15.73;1.70;;;5.20;99.90;;;;;;7278173;32;20104;-60
2022/12/30 03:54:22;;;;;;;10.20;1.50;;;5.20;99.90;;;;;;7271257;32;20208;-60
2022/12/30 03:58:24;;;;;;;11.55;1.92;;;5.10;99.90;;;;;;7277078;32;20507;-61
2022/12/30 04:02:26;;;;;;;9.75;1.45;;;5.00;99.90;;;;;;7278789;32;20104;-60
2022/12/30 04:06:28;;;;;;;10.85;1.60;;;5.00;99.90;;;;;;7280449;32;20112;-60
2022/12/30 04:10:30;;;;;;;14.90;1.85;;;5.00;99.90;;;;;;7296164;32;20207;-60
2022/12/30 04:14:32;;;;;;;10.70;1.95;;;5.00;99.90;;;;;;7291497;32;20107;-60
2022/12/30 04:18:33;;;;;;;16.65;2.53;;;4.90;99.90;;;;;;7293638;32;20442;-62
2022/12/30 04:22:35;;;;;;;11.23;1.77;;;4.90;99.90;;;;;;7293119;32;20230;-60
2022/12/30 04:26:37;;;;;;;10.88;2.53;;;4.80;99.90;;;;;;7295353;32;20306;-60
2022/12/30 04:30:39;;;;;;;19.17;2.30;;;4.70;99.90;;;;;;7294204;32;20124;-60
2022/12/30 04:34:40;;;;;;;12.88;2.10;;;4.60;99.90;;;;;;7282034;32;20133;-59
2022/12/30 04:38:42;;;;;;;11.60;1.65;;;4.60;99.90;;;;;;7291664;32;20131;-59
2022/12/30 04:42:44;;;;;;;16.33;1.77;;;4.50;99.90;;;;;;7291130;32;20130;-59
2022/12/30 04:46:46;;;;;;;15.07;2.15;;;4.70;99.90;;;;;;7265604;32;20143;-59
2022/12/30 04:50:48;;;;;;;12.68;2.37;;;4.50;99.90;;;;;;7292136;32;20235;-59
2022/12/30 04:54:50;;;;;;;13.15;1.95;;;4.50;99.90;;;;;;7294482;32;20236;-59
2022/12/30 04:58:51;;;;;;;12.75;2.55;;;4.50;99.90;;;;;;7277444;32;20133;-59
2022/12/30 05:02:53;;;;;;;18.23;2.30;;;4.40;99.90;;;;;;7291552;32;20108;-59
2022/12/30 05:06:55;;;;;;;12.02;1.73;;;4.40;99.90;;;;;;7295294;32;20246;-59
2022/12/30 05:10:57;;;;;;;12.73;2.75;;;4.50;99.90;;;;;;7290594;32;20555;-59
2022/12/30 05:14:59;;;;;;;12.70;2.10;;;4.50;99.90;;;;;;7295347;32;20107;-59
2022/12/30 05:19:00;;;;;;;16.02;2.58;;;4.70;99.90;;;;;;7283870;32;20259;-59
2022/12/30 05:23:02;;;;;;;15.05;1.80;;;4.70;99.90;;;;;;7261360;32;20170;-61
2022/12/30 05:27:04;;;;;;;14.23;1.73;;;4.70;99.90;;;;;;7281149;32;20162;-59
2022/12/30 05:31:06;;;;;;;12.37;1.77;;;4.70;99.90;;;;;;7289729;32;20195;-59
2022/12/30 05:35:08;;;;;;;14.25;2.25;;;4.80;99.90;;;;;;7280997;32;20243;-59
2022/12/30 05:39:11;;;;;;;14.93;2.25;;;4.80;99.90;;;;;;7279680;32;20179;-59
2022/12/30 05:43:13;;;;;;;11.65;2.22;;;4.70;99.90;;;;;;7295219;32;20152;-59
2022/12/30 05:47:15;;;;;;;11.80;2.40;;;4.90;99.90;;;;;;7291531;32;20236;-60
2022/12/30 05:51:17;;;;;;;13.60;1.95;;;4.90;99.90;;;;;;7278555;32;20100;-59
2022/12/30 05:55:18;;;;;;;12.48;1.70;;;4.90;99.90;;;;;;7282330;32;20108;-59
2022/12/30 05:59:20;;;;;;;13.75;2.20;;;5.00;99.90;;;;;;7298957;32;20302;-59
2022/12/30 06:03:22;;;;;;;13.38;2.00;;;5.00;99.90;;;;;;7284435;32;20676;-59
2022/12/30 06:07:24;;;;;;;13.10;1.80;;;5.00;99.90;;;;;;7285110;32;20707;-59
2022/12/30 06:11:25;;;;;;;13.05;2.00;;;5.00;99.90;;;;;;7276717;32;20127;-60
2022/12/30 06:15:27;;;;;;;10.38;1.50;;;5.10;99.90;;;;;;7300904;32;20606;-59
2022/12/30 06:19:29;;;;;;;8.52;1.65;;;5.10;99.90;;;;;;7277769;32;20107;-59
2022/12/30 06:23:31;;;;;;;11.77;1.92;;;5.20;99.90;;;;;;7292064;32;20127;-59
2022/12/30 06:27:33;;;;;;;12.30;2.15;;;5.20;99.90;;;;;;7295593;32;20557;-60
2022/12/30 06:31:34;;;;;;;12.52;1.73;;;5.20;99.90;;;;;;7294323;32;20108;-60
2022/12/30 06:35:36;;;;;;;12.57;1.80;;;5.20;99.90;;;;;;7271973;32;20139;-59
2022/12/30 06:39:38;;;;;;;7.47;1.70;;;5.20;99.90;;;;;;7295505;32;20609;-59
2022/12/30 06:43:40;;;;;;;15.45;2.05;;;5.30;99.90;;;;;;7285098;32;20272;-59
2022/12/30 06:47:42;;;;;;;12.15;1.80;;;5.30;99.90;;;;;;7297469;32;20119;-60
2022/12/30 06:51:43;;;;;;;10.38;1.75;;;5.30;99.90;;;;;;7294826;32;20462;-60
2022/12/30 06:55:45;;;;;;;9.90;1.83;;;5.30;99.90;;;;;;7291801;32;20136;-61
2022/12/30 06:59:47;;;;;;;13.23;1.80;;;5.30;99.90;;;;;;7289332;32;20109;-61
2022/12/30 07:03:48;;;;;;;10.55;1.58;;;5.30;99.90;;;;;;7291162;32;20711;-61
2022/12/30 07:07:51;;;;;;;10.00;1.90;;;5.30;99.90;;;;;;7295624;32;20328;-60
2022/12/30 07:11:52;;;;;;;14.35;2.12;;;5.40;99.90;;;;;;7291282;32;20442;-59
2022/12/30 07:15:54;;;;;;;12.00;1.45;;;5.30;99.90;;;;;;7292455;32;20107;-60
2022/12/30 07:19:56;;;;;;;11.43;1.48;;;5.40;99.90;;;;;;7294223;32;20116;-59
2022/12/30 07:23:58;;;;;;;15.63;1.85;;;5.50;99.90;;;;;;7295857;32;20195;-59
2022/12/30 07:28:01;;;;;;;12.00;2.05;;;5.50;99.90;;;;;;7293994;32;20138;-59
2022/12/30 07:32:03;;;;;;;9.45;1.87;;;5.40;99.90;;;;;;7294790;32;20144;-59
2022/12/30 07:36:05;;;;;;;12.48;1.52;;;5.50;99.90;;;;;;7293701;32;20157;-61
2022/12/30 07:40:07;;;;;;;16.48;4.35;;;5.50;99.90;;;;;;7284992;32;20171;-61
2022/12/30 07:44:09;;;;;;;6.20;1.67;;;5.60;99.90;;;;;;7295714;32;20222;-62
2022/12/30 07:48:11;;;;;;;13.30;2.12;;;5.60;99.90;;;;;;7293679;32;20147;-63
2022/12/30 07:52:13;;;;;;;7.30;1.55;;;5.60;99.90;;;;;;7297584;32;20226;-63
2022/12/30 07:56:14;;;;;;;9.77;1.30;;;5.70;99.90;;;;;;7293920;32;20254;-64
2022/12/30 08:00:16;;;;;;;8.60;1.58;;;5.80;99.90;;;;;;7297265;32;20135;-63
2022/12/30 08:04:27;;;;;;;6.60;1.80;;;5.80;99.90;;;;;;7290414;32;20572;-63
2022/12/30 08:08:48;;;;;;;10.52;2.25;;;5.80;99.90;;;;;;7290602;32;20869;-62
2022/12/30 08:12:50;;;;;;;10.27;1.90;;;5.80;99.90;;;;;;7291352;32;20112;-62
2022/12/30 08:16:52;;;;;;;8.50;1.50;;;5.90;99.90;;;;;;7295123;32;20487;-63
2022/12/30 08:20:53;;;;;;;10.27;1.52;;;5.90;99.90;;;;;;7294970;32;20138;-63
2022/12/30 08:24:55;;;;;;;10.27;1.67;;;6.00;99.90;;;;;;7290917;32;20160;-63
2022/12/30 08:28:57;;;;;;;10.73;1.85;;;6.10;99.90;;;;;;7279694;32;20188;-63
2022/12/30 08:32:59;;;;;;;7.97;1.48;;;6.20;99.90;;;;;;7294333;32;20140;-63
2022/12/30 08:37:01;;;;;;;8.80;1.40;;;6.20;99.90;;;;;;7291333;32;20246;-62
2022/12/30 08:41:13;;;;;;;5.93;1.20;;;6.30;99.90;;;;;;7276070;32;20984;-64
2022/12/30 08:45:15;;;;;;;9.55;1.58;;;6.40;99.90;;;;;;7294764;32;20161;-64
2022/12/30 08:49:16;;;;;;;8.07;1.40;;;6.50;99.90;;;;;;7292000;32;20526;-64
2022/12/30 08:53:18;;;;;;;6.75;1.65;;;6.60;99.90;;;;;;7296771;32;20133;-63
2022/12/30 08:57:20;;;;;;;5.72;1.17;;;6.60;99.90;;;;;;7296381;32;20264;-63
2022/12/30 09:01:30;;;;;;;8.63;1.45;;;6.80;99.90;;;;;;7293970;32;20112;-63
2022/12/30 09:05:32;;;;;;;7.37;1.15;;;6.80;99.90;;;;;;7294413;32;20147;-62
2022/12/30 09:09:36;;;;;;;9.93;1.80;;;6.80;99.90;;;;;;7291782;32;20218;-64
2022/12/30 09:13:41;;;;;;;4.62;0.77;;;6.90;99.90;;;;;;7295139;32;20132;-63
2022/12/30 09:17:42;;;;;;;8.00;1.42;;;7.00;99.90;;;;;;7294765;32;20107;-63
2022/12/30 09:21:44;;;;;;;7.20;1.50;;;7.10;99.90;;;;;;7295856;32;20108;-64
2022/12/30 09:25:46;;;;;;;8.63;1.42;;;7.20;99.90;;;;;;7295970;32;20104;-63
2022/12/30 09:29:47;;;;;;;7.45;1.83;;;7.10;99.90;;;;;;7300414;32;20404;-63
2022/12/30 09:33:49;;;;;;;3.85;1.15;;;7.30;99.90;;;;;;7284210;32;20142;-63
2022/12/30 09:37:51;;;;;;;8.68;1.65;;;7.30;99.90;;;;;;7297896;32;20262;-64
2022/12/30 09:46:41;;;;;;;9.73;1.73;;;7.50;99.90;;;;;;7143635;33;20522;-63
2022/12/30 09:50:49;;;;;;;7.60;1.33;;;7.60;99.90;;;;;;7215715;32;20115;-63
2022/12/30 09:55:04;;;;;;;8.13;1.30;;;7.70;99.90;;;;;;7287835;32;20138;-64
2022/12/30 09:59:32;;;;;;;6.75;1.35;;;7.80;99.90;;;;;;7289688;32;20134;-64
2022/12/30 10:03:33;;;;;;;9.15;1.20;;;7.90;99.90;;;;;;7277878;32;20227;-62
2022/12/30 10:08:01;;;;;;;6.80;1.25;;;8.00;99.90;;;;;;7280440;32;20108;-62
2022/12/30 10:12:41;;;;;;;4.00;1.20;;;8.20;99.90;;;;;;7292213;32;20135;-60
2022/12/30 10:17:02;;;;;;;4.60;1.08;;;8.30;99.90;;;;;;7255163;32;20112;-61
2022/12/30 10:21:14;;;;;;;5.35;1.27;;;8.50;99.90;;;;;;7281123;32;20245;-62
2022/12/30 10:25:37;;;;;;;4.80;1.30;;;8.60;99.90;;;;;;7280031;32;20134;-62
2022/12/30 10:29:41;;;;;;;4.65;1.08;;;8.70;99.90;;;;;;7297346;32;20103;-62
2022/12/30 10:33:43;;;;;;;5.47;1.12;;;8.80;99.90;;;;;;7279347;32;20107;-62
2022/12/30 10:37:45;;;;;;;4.37;0.70;;;9.00;99.90;;;;;;7290372;32;20119;-63
2022/12/30 10:42:01;;;;;;;4.25;1.00;;;9.00;99.90;;;;;;7290170;32;20222;-63
2022/12/30 10:46:18;;;;;;;7.90;1.20;;;8.90;99.90;;;;;;7291011;32;20140;-63
2022/12/30 10:50:40;;;;;;;5.12;1.20;;;9.00;99.90;;;;;;7292906;32;20124;-62
2022/12/30 10:54:43;;;;;;;7.68;1.05;;;9.10;99.90;;;;;;7294284;32;20572;-62
2022/12/30 10:58:48;;;;;;;6.80;1.02;;;9.20;99.90;;;;;;7292222;32;20111;-62
2022/12/30 11:03:01;;;;;;;3.78;1.25;;;9.10;99.90;;;;;;7291898;32;20130;-58
2022/12/30 11:07:07;;;;;;;5.70;0.85;;;9.10;99.90;;;;;;7291872;32;20108;-64
2022/12/30 11:11:09;;;;;;;6.87;1.00;;;9.20;99.90;;;;;;7294457;32;20104;-62
2022/12/30 11:15:15;;;;;;;5.35;1.00;;;9.00;99.90;;;;;;7293144;32;20280;-63
2022/12/30 11:19:26;;;;;;;9.65;1.37;;;8.90;99.90;;;;;;7291721;32;20269;-63
2022/12/30 11:23:38;;;;;;;3.87;0.70;;;8.90;99.90;;;;;;7293325;32;20120;-64
2022/12/30 11:27:47;;;;;;;4.68;0.98;;;8.90;99.90;;;;;;7297334;32;20859;-63
2022/12/30 11:31:53;;;;;;;5.72;0.98;;;8.90;99.90;;;;;;7290598;32;20242;-63
2022/12/30 11:36:18;;;;;;;4.95;0.93;;;8.90;99.90;;;;;;7290361;32;20278;-65
2022/12/30 11:40:36;;;;;;;4.12;0.93;;;8.80;99.90;;;;;;7295939;32;20108;-62
2022/12/30 11:44:38;;;;;;;6.47;1.10;;;8.80;99.90;;;;;;7295651;32;20108;-64
2022/12/30 11:48:55;;;;;;;3.80;0.98;;;8.90;99.90;;;;;;7292983;32;20306;-64
2022/12/30 11:53:01;;;;;;;5.87;1.00;;;8.80;99.90;;;;;;7290744;32;20132;-63
2022/12/30 11:57:17;;;;;;;4.82;1.00;;;8.80;99.90;;;;;;7294732;32;20389;-64
2022/12/30 12:01:19;;;;;;;3.53;1.00;;;8.90;99.90;;;;;;7293980;32;20104;-64
2022/12/30 12:05:30;;;;;;;4.35;1.00;;;8.90;99.90;;;;;;7291688;32;20171;-63
2022/12/30 12:09:36;;;;;;;6.32;1.20;;;8.90;99.90;;;;;;7276544;32;20119;-64
2022/12/30 12:13:47;;;;;;;4.40;1.02;;;8.80;99.90;;;;;;7269194;32;20569;-64
2022/12/30 12:17:54;;;;;;;4.07;1.10;;;8.80;99.90;;;;;;7284689;32;20134;-63
2022/12/30 12:22:00;;;;;;;6.10;1.15;;;8.80;99.90;;;;;;7290216;32;20494;-63
2022/12/30 12:26:31;;;;;;;5.22;1.17;;;8.70;99.90;;;;;;7277246;32;20319;-65
2022/12/30 12:31:09;;;;;;;4.53;1.27;;;8.90;99.90;;;;;;7272936;32;20131;-64
2022/12/30 12:35:29;;;;;;;5.37;1.27;;;8.90;99.90;;;;;;7288429;32;20203;-64
2022/12/30 12:39:55;;;;;;;7.75;0.95;;;8.80;99.90;;;;;;7288126;32;20108;-65
2022/12/30 12:44:22;;;;;;;5.20;0.85;;;8.90;99.90;;;;;;7279102;32;20158;-65
2022/12/30 12:49:01;;;;;;;4.72;1.23;;;8.90;99.90;;;;;;7287060;32;20127;-66
2022/12/30 12:53:25;;;;;;;3.80;0.98;;;8.90;99.90;;;;;;7290207;32;20198;-65
2022/12/30 12:57:34;;;;;;;4.60;1.23;;;8.90;99.90;;;;;;7289215;32;20802;-64
2022/12/30 13:01:49;;;;;;;6.60;1.20;;;8.90;99.90;;;;;;7292719;32;20246;-65
2022/12/30 13:06:34;;;;;;;6.37;1.33;;;9.00;99.90;;;;;;7288610;32;20349;-62
2022/12/30 13:10:59;;;;;;;5.72;0.98;;;9.00;99.90;;;;;;7293124;32;20157;-64
2022/12/30 13:15:27;;;;;;;6.25;1.02;;;9.10;99.90;;;;;;7292818;32;20295;-64
2022/12/30 13:19:35;;;;;;;4.43;0.90;;;9.00;99.90;;;;;;7287669;32;20124;-63
2022/12/30 13:23:47;;;;;;;8.77;1.10;;;8.90;99.90;;;;;;7291687;32;20134;-64
2022/12/30 13:27:52;;;;;;;7.55;1.30;;;8.80;99.90;;;;;;7293683;32;20108;-63
2022/12/30 13:32:31;;;;;;;5.68;1.02;;;8.60;99.90;;;;;;7296157;32;20149;-66
2022/12/30 13:36:56;;;;;;;5.75;1.00;;;8.50;99.90;;;;;;7288109;32;20135;-63
2022/12/30 13:41:25;;;;;;;3.60;1.23;;;8.30;99.90;;;;;;7295463;32;20357;-64
2022/12/30 13:45:34;;;;;;;5.97;1.12;;;8.10;99.90;;;;;;7293451;32;20215;-63
2022/12/30 13:49:39;;;;;;;8.68;1.60;;;7.90;99.90;;;;;;7294245;32;20214;-64
2022/12/30 13:53:45;;;;;;;5.37;1.00;;;7.80;99.90;;;;;;7291548;32;20119;-64
2022/12/30 13:57:52;;;;;;;4.50;1.00;;;7.80;99.90;;;;;;7279400;32;20183;-64
2022/12/30 14:02:15;;;;;;;6.60;1.02;;;7.80;99.90;;;;;;7293355;32;20133;-64
2022/12/30 14:06:20;;;;;;;4.93;1.15;;;7.80;99.90;;;;;;7288904;32;20252;-62
2022/12/30 14:10:22;;;;;;;7.32;1.17;;;7.70;99.90;;;;;;7285506;32;20324;-61
2022/12/30 14:14:24;;;;;;;5.75;1.08;;;7.70;99.90;;;;;;7293434;32;20169;-66
2022/12/30 14:18:37;;;;;;;5.43;1.42;;;7.70;99.90;;;;;;7270164;32;20108;-63
2022/12/30 14:22:39;;;;;;;7.82;1.05;;;7.70;99.90;;;;;;7287605;32;20506;-63
2022/12/30 14:26:41;;;;;;;4.37;1.05;;;7.60;99.90;;;;;;7282513;32;20116;-62
2022/12/30 14:30:47;;;;;;;9.25;1.20;;;7.70;99.90;;;;;;7282088;32;20112;-63
2022/12/30 14:34:58;;;;;;;10.30;1.30;;;7.80;99.90;;;;;;7282869;32;20126;-62
2022/12/30 14:39:16;;;;;;;8.40;1.33;;;7.70;99.90;;;;;;7282328;32;20542;-62
2022/12/30 14:43:21;;;;;;;5.57;1.05;;;7.80;99.90;;;;;;7295043;32;20145;-63
2022/12/30 14:47:56;;;;;;;7.07;1.10;;;7.70;99.90;;;;;;7299010;32;20385;-62
2022/12/30 14:52:10;;;;;;;5.35;1.00;;;7.70;99.90;;;;;;7257710;32;20176;-61
2022/12/30 14:56:20;;;;;;;6.62;1.45;;;7.70;99.90;;;;;;7297825;32;20116;-61
2022/12/30 15:00:27;;;;;;;7.78;1.08;;;7.70;99.90;;;;;;7272916;32;20307;-62
2022/12/30 15:04:29;;;;;;;5.78;0.95;;;7.70;99.90;;;;;;7286340;32;20261;-64
2022/12/30 15:08:34;;;;;;;5.03;1.05;;;7.70;99.90;;;;;;7298121;32;20154;-65
2022/12/30 15:12:37;;;;;;;7.00;1.05;;;7.70;99.90;;;;;;7293051;32;20237;-62
2022/12/30 15:16:38;;;;;;;7.18;1.10;;;7.70;99.90;;;;;;7294574;32;20153;-62
2022/12/30 15:20:41;;;;;;;5.37;1.10;;;7.70;99.90;;;;;;7294314;32;20415;-62
2022/12/30 15:24:43;;;;;;;8.25;1.00;;;7.80;99.90;;;;;;7295143;32;20461;-63
2022/12/30 15:28:45;;;;;;;7.82;0.98;;;7.80;99.90;;;;;;7298137;32;20104;-63
2022/12/30 15:33:03;;;;;;;6.12;0.93;;;7.80;99.90;;;;;;7298626;32;20129;-63
2022/12/30 15:37:19;;;;;;;6.50;1.23;;;7.80;99.90;;;;;;7292023;32;20108;-63
2022/12/30 15:41:25;;;;;;;3.35;1.40;;;7.80;99.90;;;;;;7292077;32;20162;-63
2022/12/30 15:45:37;;;;;;;9.00;1.20;;;7.90;99.90;;;;;;7292493;32;20130;-65
2022/12/30 15:49:54;;;;;;;8.02;1.20;;;7.90;99.90;;;;;;7293199;32;21024;-65
2022/12/30 15:54:01;;;;;;;3.33;1.30;;;7.90;99.90;;;;;;7296415;32;20163;-62
2022/12/30 15:58:07;;;;;;;5.53;1.30;;;7.90;99.90;;;;;;7293494;32;20199;-64
2022/12/30 16:02:20;;;;;;;4.55;1.42;;;7.90;99.90;;;;;;7293944;32;20536;-64
2022/12/30 16:06:31;;;;;;;6.57;2.10;;;7.90;99.90;;;;;;7295648;32;20137;-63
2022/12/30 16:10:33;;;;;;;6.95;2.05;;;7.90;99.90;;;;;;7281945;32;20233;-62
2022/12/30 16:14:39;;;;;;;4.97;1.50;;;7.90;99.90;;;;;;7294973;32;20318;-63
2022/12/30 16:18:41;;;;;;;6.03;1.73;;;7.90;99.90;;;;;;7291006;32;20159;-62
2022/12/30 16:22:44;;;;;;;4.65;1.65;;;7.90;99.90;;;;;;7296757;32;20173;-62
2022/12/30 16:26:52;;;;;;;4.93;1.60;;;8.00;99.90;;;;;;7294121;32;20278;-62
2022/12/30 16:30:54;;;;;;;4.90;2.00;;;8.00;99.90;;;;;;7280094;32;20183;-63
2022/12/30 16:34:55;;;;;;;3.87;1.62;;;8.00;99.90;;;;;;7295279;32;20165;-62
2022/12/30 16:38:57;;;;;;;4.72;2.05;;;8.00;99.90;;;;;;7289722;32;20241;-62
2022/12/30 16:42:59;;;;;;;3.60;2.00;;;8.10;99.90;;;;;;7296005;32;20099;-62
2022/12/30 16:47:01;;;;;;;3.83;1.90;;;8.10;99.90;;;;;;7295802;32;20134;-63
2022/12/30 16:51:02;;;;;;;5.03;2.25;;;8.10;99.90;;;;;;7292455;32;20203;-63
2022/12/30 16:55:05;;;;;;;4.53;1.92;;;8.10;99.90;;;;;;7296171;32;20544;-63
2022/12/30 16:59:09;;;;;;;4.60;2.00;;;8.20;99.90;;;;;;7290922;32;20107;-62
2022/12/30 17:03:18;;;;;;;7.55;2.65;;;8.20;99.90;;;;;;7293250;32;20317;-61
2022/12/30 17:07:21;;;;;;;4.47;2.42;;;8.30;99.90;;;;;;7282397;32;20237;-62
2022/12/30 17:11:25;;;;;;;6.25;3.08;;;8.30;99.90;;;;;;7285048;32;20203;-62
2022/12/30 17:15:27;;;;;;;4.07;2.37;;;8.30;99.90;;;;;;7286043;32;20278;-62
2022/12/30 17:19:33;;;;;;;6.32;2.50;;;8.40;99.90;;;;;;7275760;32;20179;-62
2022/12/30 17:23:41;;;;;;;3.80;2.40;;;8.40;99.90;;;;;;7290108;32;20561;-63
2022/12/30 17:27:43;;;;;;;3.60;2.00;;;8.40;99.90;;;;;;7275536;32;20260;-63
2022/12/30 17:31:45;;;;;;;3.90;2.28;;;8.50;99.90;;;;;;7294886;32;20104;-64
2022/12/30 17:35:48;;;;;;;3.78;1.83;;;8.50;99.90;;;;;;7293325;32;20179;-62
2022/12/30 17:39:50;;;;;;;3.45;2.33;;;8.60;99.90;;;;;;7293818;32;20186;-62
2022/12/30 17:43:52;;;;;;;5.65;2.42;;;8.60;99.90;;;;;;7295007;32;20127;-63
2022/12/30 17:47:54;;;;;;;4.55;1.70;;;8.70;99.90;;;;;;7294536;32;20103;-63
2022/12/30 17:51:55;;;;;;;2.90;1.77;;;8.70;99.90;;;;;;7296361;32;20255;-64
2022/12/30 17:55:57;;;;;;;4.28;1.73;;;8.70;99.90;;;;;;7300199;32;20232;-64
2022/12/30 17:59:59;;;;;;;4.60;2.40;;;8.80;99.90;;;;;;7297836;32;20145;-65
2022/12/30 18:04:01;;;;;;;3.60;2.00;;;8.80;99.90;;;;;;7278176;32;20157;-62
2022/12/30 18:08:02;;;;;;;3.60;1.50;;;8.90;99.90;;;;;;7295783;32;20190;-63
2022/12/30 18:12:08;;;;;;;2.78;1.35;;;8.90;99.90;;;;;;7294005;32;20226;-63
2022/12/30 18:16:13;;;;;;;2.47;1.10;;;8.90;99.90;;;;;;7298564;32;20130;-66
2022/12/30 18:20:16;;;;;;;2.17;1.33;;;9.20;99.90;;;;;;7287907;32;20542;-62
2022/12/30 18:24:18;;;;;;;1.70;1.20;;;9.40;99.90;;;;;;7293554;32;20175;-61
2022/12/30 18:28:22;;;;;;;1.55;0.95;;;9.40;99.90;;;;;;7297907;32;20134;-62
2022/12/30 18:32:24;;;;;;;1.70;1.05;;;9.50;99.90;;;;;;7283556;32;20328;-63
2022/12/30 18:36:28;;;;;;;1.17;0.80;;;9.50;99.90;;;;;;7298475;32;20207;-63
2022/12/30 18:40:30;;;;;;;1.65;1.00;;;9.60;99.90;;;;;;7294758;32;20138;-63
2022/12/30 18:44:32;;;;;;;2.03;1.02;;;9.70;99.90;;;;;;7287594;32;20144;-62
2022/12/30 18:48:34;;;;;;;1.05;0.75;;;9.60;99.90;;;;;;7290205;32;20317;-63
2022/12/30 18:52:37;;;;;;;2.65;0.90;;;9.70;99.90;;;;;;7296446;32;20107;-62
2022/12/30 18:56:39;;;;;;;1.15;0.80;;;9.80;99.90;;;;;;7296989;32;20134;-62
2022/12/30 19:00:40;;;;;;;1.35;1.00;;;9.90;99.90;;;;;;7295926;32;20100;-64
2022/12/30 19:04:42;;;;;;;1.85;1.05;;;10.00;99.90;;;;;;7284501;32;20133;-61
2022/12/30 19:08:44;;;;;;;2.25;0.80;;;10.00;99.90;;;;;;7294988;32;20745;-64
2022/12/30 19:12:46;;;;;;;1.30;0.80;;;10.10;99.90;;;;;;7292956;32;20107;-62
2022/12/30 19:16:52;;;;;;;1.75;1.10;;;10.10;99.90;;;;;;7293696;32;20505;-64
2022/12/30 19:20:54;;;;;;;1.50;1.05;;;10.20;99.90;;;;;;7300951;32;20563;-65
2022/12/30 19:24:56;;;;;;;1.50;0.98;;;10.20;99.90;;;;;;7292063;32;20545;-62
2022/12/30 19:28:59;;;;;;;2.17;1.20;;;10.30;99.90;;;;;;7293694;32;20104;-62
2022/12/30 19:33:01;;;;;;;1.95;1.23;;;10.40;99.90;;;;;;7284098;32;20108;-62
2022/12/30 19:37:03;;;;;;;3.17;1.50;;;10.50;99.90;;;;;;7297155;32;20210;-62
2022/12/30 19:41:04;;;;;;;3.08;0.90;;;10.50;99.90;;;;;;7294705;32;20127;-62
2022/12/30 19:45:06;;;;;;;1.00;0.70;;;10.60;99.90;;;;;;7295589;32;20328;-61
2022/12/30 19:49:12;;;;;;;2.08;1.00;;;10.70;99.90;;;;;;7292644;32;20171;-62
2022/12/30 19:53:13;;;;;;;19.37;13.10;;;10.70;99.90;;;;;;7293592;32;20226;-62
2022/12/30 19:57:15;;;;;;;2.30;0.80;;;10.90;99.90;;;;;;7292819;32;20131;-65
2022/12/30 20:01:27;;;;;;;1.25;0.85;;;11.00;99.90;;;;;;7274106;32;20201;-61
2022/12/30 20:05:29;;;;;;;1.67;0.85;;;11.10;99.90;;;;;;7289275;32;20487;-62
2022/12/30 20:09:30;;;;;;;2.42;0.80;;;11.20;99.90;;;;;;7299272;32;20103;-61
2022/12/30 20:13:33;;;;;;;1.67;1.00;;;11.20;99.90;;;;;;7297950;32;20569;-60
2022/12/30 20:17:35;;;;;;;1.90;0.98;;;11.30;99.90;;;;;;7304109;32;20518;-60
2022/12/30 20:21:37;;;;;;;2.40;1.10;;;11.40;99.90;;;;;;7289827;32;20100;-61
2022/12/30 20:25:40;;;;;;;1.80;1.05;;;11.40;99.90;;;;;;7288533;32;20553;-62
2022/12/30 20:29:42;;;;;;;1.52;0.70;;;11.40;99.90;;;;;;7280977;32;20516;-61
2022/12/30 20:33:43;;;;;;;1.33;0.82;;;11.60;99.90;;;;;;7296722;32;20230;-60
2022/12/30 20:37:45;;;;;;;1.30;0.70;;;11.60;99.90;;;;;;7279559;32;20657;-61
2022/12/30 20:41:49;;;;;;;2.92;0.80;;;11.70;99.90;;;;;;7284483;32;20627;-61
2022/12/30 20:45:50;;;;;;;1.08;0.57;;;11.90;99.90;;;;;;7283405;32;20193;-60
2022/12/30 20:49:52;;;;;;;3.08;0.70;;;12.00;99.90;;;;;;7282727;32;20123;-60
2022/12/30 20:53:54;;;;;;;0.93;0.40;;;12.10;99.90;;;;;;7297282;32;20129;-60
2022/12/30 20:57:56;;;;;;;1.02;0.52;;;12.20;99.90;;;;;;7295057;32;20167;-60
2022/12/30 21:01:57;;;;;;;1.87;0.77;;;12.20;99.90;;;;;;7297042;32;20104;-60
2022/12/30 21:06:00;;;;;;;1.40;0.60;;;12.30;99.90;;;;;;7295337;32;20579;-60
2022/12/30 21:10:05;;;;;;;1.30;0.90;;;12.40;99.90;;;;;;7272316;32;20146;-62
2022/12/30 21:14:08;;;;;;;2.72;1.25;;;12.40;99.90;;;;;;7298293;32;20194;-60
2022/12/30 21:18:10;;;;;;;1.60;0.62;;;12.30;99.90;;;;;;7294738;32;20167;-61
2022/12/30 21:22:12;;;;;;;0.90;0.60;;;12.40;99.90;;;;;;7300389;32;20112;-61
2022/12/30 21:26:25;;;;;;;1.10;0.50;;;12.40;99.90;;;;;;7300860;32;20226;-61
2022/12/30 21:30:26;;;;;;;2.42;0.80;;;12.40;99.90;;;;;;7301312;32;20231;-60
2022/12/30 21:34:28;;;;;;;2.17;0.60;;;12.50;99.90;;;;;;7287632;32;20252;-61
2022/12/30 22:04:59;;;;;;;1.95;1.00;;;12.30;99.90;;;;;;7289768;32;20130;-62
2022/12/30 22:09:00;;;;;;;3.83;0.80;;;12.20;99.90;;;;;;7301787;32;20108;-61
2022/12/30 22:13:04;;;;;;;1.42;0.65;;;12.30;99.90;;;;;;7301147;32;20163;-59
2022/12/30 22:17:06;;;;;;;2.67;0.70;;;12.30;99.90;;;;;;7300449;32;20162;-61
2022/12/30 22:21:08;;;;;;;1.20;0.77;;;12.40;99.90;;;;;;7301712;32;20525;-61
2022/12/30 22:25:10;;;;;;;3.17;1.00;;;12.40;99.90;;;;;;7300541;32;20179;-61
2022/12/30 22:29:11;;;;;;;4.07;2.15;;;12.30;99.90;;;;;;7296965;32;20137;-60
2022/12/30 22:33:13;;;;;;;0.65;0.50;;;12.50;99.90;;;;;;7291648;32;20298;-61
2022/12/30 22:37:15;;;;;;;0.62;0.35;;;12.60;99.90;;;;;;7295046;32;20258;-61
2022/12/30 22:41:16;;;;;;;0.70;0.45;;;12.70;99.90;;;;;;7298035;32;20231;-61
2022/12/30 22:45:19;;;;;;;2.42;0.60;;;12.60;99.90;;;;;;7294024;32;20144;-61
2022/12/30 22:49:21;;;;;;;2.12;0.47;;;12.50;99.90;;;;;;7293155;32;20177;-61